Time;durP1;ratioP1;P1;durP2;ratioP2;P2;SDS_P1;SDS_P2;PMS_P1;PMS_P2;Temp;Humidity;BMP_temperature;BMP_pressure;BME280_temperature;BME280_humidity;BME280_pressure;Samples;Min_cycle;Max_cycle;Signal;HPM_P1;HPM_P2
2022/06/03 00:00:19;;;;;;;2.80;0.60;;;;;;;;;;5089276;28;20052;-73
2022/06/03 00:03:04;;;;;;;1.33;0.70;;;;;;;;;;5088944;28;20271;-74
2022/06/03 00:05:40;;;;;;;1.20;0.55;;;;;;;;;;5094258;28;20028;-73
2022/06/03 00:08:10;;;;;;;3.50;0.70;;;;;;;;;;5093143;28;20411;-73
2022/06/03 00:10:53;;;;;;;1.63;0.57;;;;;;;;;;5093926;28;20021;-73
2022/06/03 00:13:32;;;;;;;1.10;0.57;;;;;;;;;;5092578;28;20040;-73
2022/06/03 00:16:02;;;;;;;2.27;0.83;;;;;;;;;;5091927;28;20157;-73
2022/06/03 00:18:38;;;;;;;2.03;0.77;;;;;;;;;;5088485;28;20110;-74
2022/06/03 00:21:07;;;;;;;3.53;0.70;;;;;;;;;;5086154;28;20024;-74
2022/06/03 00:23:49;;;;;;;1.17;0.60;;;;;;;;;;5088694;28;20360;-73
2022/06/03 00:26:25;;;;;;;2.67;0.50;;;;;;;;;;5073130;28;20387;-73
2022/06/03 00:28:51;;;;;;;3.33;0.80;;;;;;;;;;5093930;28;20052;-73
2022/06/03 00:31:27;;;;;;;1.40;0.77;;;;;;;;;;5094374;28;20055;-73
2022/06/03 00:34:13;;;;;;;5.63;0.80;;;;;;;;;;5094091;28;20085;-73
2022/06/03 00:36:56;;;;;;;2.40;0.97;;;;;;;;;;5043404;28;20389;-73
2022/06/03 00:39:38;;;;;;;4.23;0.90;;;;;;;;;;5089711;28;20036;-73
2022/06/03 00:42:15;;;;;;;1.30;0.80;;;;;;;;;;5088082;28;20099;-72
2022/06/03 00:44:41;;;;;;;2.60;0.97;;;;;;;;;;5088528;28;20031;-73
2022/06/03 00:47:26;;;;;;;1.87;0.80;;;;;;;;;;5088365;28;20378;-73
2022/06/03 00:50:04;;;;;;;1.52;0.60;;;;;;;;;;5093283;28;20399;-73
2022/06/03 00:52:52;;;;;;;5.23;1.43;;;;;;;;;;5086903;28;20533;-73
2022/06/03 00:55:19;;;;;;;4.03;1.17;;;;;;;;;;5093808;28;20032;-73
2022/06/03 00:57:48;;;;;;;4.57;1.77;;;;;;;;;;5093590;28;20020;-73
2022/06/03 01:00:18;;;;;;;6.07;2.40;;;;;;;;;;5092205;28;20049;-73
2022/06/03 01:02:58;;;;;;;4.57;2.33;;;;;;;;;;5083215;28;20020;-73
2022/06/03 01:05:30;;;;;;;4.97;1.40;;;;;;;;;;5088244;28;20111;-73
2022/06/03 01:08:05;;;;;;;1.67;0.93;;;;;;;;;;5087807;28;20103;-73
2022/06/03 01:10:36;;;;;;;4.73;1.33;;;;;;;;;;5089613;28;20382;-73
2022/06/03 01:13:21;;;;;;;5.93;1.57;;;;;;;;;;5093526;28;20463;-73
2022/06/03 01:15:48;;;;;;;2.28;1.20;;;;;;;;;;5088236;28;20036;-73
2022/06/03 01:18:15;;;;;;;5.37;1.70;;;;;;;;;;5093068;28;20078;-73
2022/06/03 01:20:56;;;;;;;3.57;1.70;;;;;;;;;;5093340;28;20016;-73
2022/06/03 01:23:25;;;;;;;4.50;1.77;;;;;;;;;;5089363;28;20048;-72
2022/06/03 01:26:10;;;;;;;4.10;1.90;;;;;;;;;;5087645;28;20113;-73
2022/06/03 01:28:37;;;;;;;6.38;2.20;;;;;;;;;;5087726;28;20143;-73
2022/06/03 01:31:10;;;;;;;7.37;2.27;;;;;;;;;;5087859;28;20020;-73
2022/06/03 01:33:36;;;;;;;3.40;1.83;;;;;;;;;;5090714;28;20024;-73
2022/06/03 01:36:23;;;;;;;6.10;1.60;;;;;;;;;;5092960;28;20540;-73
2022/06/03 01:39:02;;;;;;;7.57;2.80;;;;;;;;;;5093057;28;20066;-73
2022/06/03 01:41:41;;;;;;;8.20;2.87;;;;;;;;;;5092889;28;20032;-73
2022/06/03 01:44:11;;;;;;;3.93;1.83;;;;;;;;;;5092645;28;20530;-73
2022/06/03 01:46:44;;;;;;;7.50;2.10;;;;;;;;;;5071648;28;20028;-73
2022/06/03 01:49:21;;;;;;;5.97;2.33;;;;;;;;;;5087277;28;20024;-73
2022/06/03 01:52:03;;;;;;;3.80;1.80;;;;;;;;;;5087024;28;20035;-73
2022/06/03 01:54:36;;;;;;;3.73;1.50;;;;;;;;;;5086938;28;20467;-73
2022/06/03 01:57:14;;;;;;;4.13;1.33;;;;;;;;;;5092488;28;20043;-73
2022/06/03 01:59:59;;;;;;;4.80;1.67;;;;;;;;;;5091593;28;20038;-73
2022/06/03 02:02:25;;;;;;;2.85;1.40;;;;;;;;;;5090141;28;20024;-73
2022/06/03 02:05:02;;;;;;;2.93;1.27;;;;;;;;;;5092376;28;20028;-73
2022/06/03 02:07:38;;;;;;;4.67;1.40;;;;;;;;;;5090262;28;20027;-73
2022/06/03 02:10:14;;;;;;;7.27;4.00;;;;;;;;;;5086667;28;20031;-73
2022/06/03 02:12:41;;;;;;;6.50;3.03;;;;;;;;;;5087078;28;20039;-73
2022/06/03 02:15:28;;;;;;;7.73;2.50;;;;;;;;;;5086865;28;20497;-74
2022/06/03 02:17:54;;;;;;;4.13;2.10;;;;;;;;;;5057867;28;20082;-73
2022/06/03 02:20:24;;;;;;;5.17;2.30;;;;;;;;;;5091976;28;20057;-74
2022/06/03 02:23:09;;;;;;;4.63;2.30;;;;;;;;;;5092225;28;20426;-73
2022/06/03 02:25:54;;;;;;;7.07;2.78;;;;;;;;;;5091993;28;20024;-73
2022/06/03 02:28:40;;;;;;;8.77;5.15;;;;;;;;;;5090497;28;20103;-74
2022/06/03 02:31:23;;;;;;;8.50;4.53;;;;;;;;;;5087059;28;20032;-73
2022/06/03 02:33:50;;;;;;;9.00;4.80;;;;;;;;;;5086961;28;20075;-73
2022/06/03 02:36:35;;;;;;;9.93;3.70;;;;;;;;;;5086210;28;20032;-74
2022/06/03 02:39:20;;;;;;;6.22;2.63;;;;;;;;;;5086872;28;20028;-73
2022/06/03 02:41:56;;;;;;;2.55;1.30;;;;;;;;;;5091949;28;20403;-73
2022/06/03 02:44:30;;;;;;;18.80;3.57;;;;;;;;;;5092200;28;20045;-74
2022/06/03 02:47:00;;;;;;;9.93;2.00;;;;;;;;;;5091822;28;20111;-74
2022/06/03 02:49:33;;;;;;;2.87;1.13;;;;;;;;;;5092385;28;20028;-74
2022/06/03 02:51:59;;;;;;;6.57;1.67;;;;;;;;;;5089434;28;20085;-75
2022/06/03 02:54:37;;;;;;;1.93;0.90;;;;;;;;;;5086206;28;20089;-75
2022/06/03 02:57:22;;;;;;;2.60;0.90;;;;;;;;;;5086193;28;20077;-75
2022/06/03 03:00:10;;;;;;;2.55;0.98;;;;;;;;;;5085806;28;20376;-75
2022/06/03 03:02:41;;;;;;;5.03;1.20;;;;;;;;;;5089063;28;20028;-75
2022/06/03 03:05:16;;;;;;;1.80;0.90;;;;;;;;;;5091899;28;20427;-75
2022/06/03 03:07:47;;;;;;;6.07;1.20;;;;;;;;;;5092170;28;20352;-74
2022/06/03 03:10:21;;;;;;;2.73;1.10;;;;;;;;;;5091907;28;20092;-75
2022/06/03 03:13:00;;;;;;;3.60;1.05;;;;;;;;;;5094663;28;20102;-75
2022/06/03 03:15:33;;;;;;;7.60;2.47;;;;;;;;;;5091012;28;20043;-74
2022/06/03 03:18:18;;;;;;;4.40;1.63;;;;;;;;;;5090479;28;20035;-74
2022/06/03 03:20:50;;;;;;;4.95;1.48;;;;;;;;;;5089988;28;20111;-75
2022/06/03 03:23:49;;;;;;;2.40;1.23;;;;;;;;;;5070252;28;20025;-74
2022/06/03 03:26:34;;;;;;;6.70;2.60;;;;;;;;;;5056928;28;20487;-74
2022/06/03 03:29:01;;;;;;;4.70;1.35;;;;;;;;;;5095152;28;20047;-74
2022/06/03 03:31:34;;;;;;;3.13;1.00;;;;;;;;;;5094944;28;20427;-74
2022/06/03 03:34:16;;;;;;;4.13;1.50;;;;;;;;;;5095338;28;20471;-74
2022/06/03 03:37:03;;;;;;;2.73;1.23;;;;;;;;;;5092654;28;20024;-74
2022/06/03 03:39:36;;;;;;;15.40;4.00;;;;;;;;;;5088020;28;20073;-74
2022/06/03 03:42:26;;;;;;;4.20;1.73;;;;;;;;;;5089876;28;20366;-74
2022/06/03 03:45:09;;;;;;;4.33;1.40;;;;;;;;;;5089303;28;20089;-74
2022/06/03 03:47:57;;;;;;;3.40;1.23;;;;;;;;;;5093838;28;20027;-74
2022/06/03 03:50:43;;;;;;;2.90;1.20;;;;;;;;;;5095140;28;20478;-74
2022/06/03 03:53:29;;;;;;;1.93;1.03;;;;;;;;;;5094875;28;20032;-74
2022/06/03 03:55:55;;;;;;;6.73;1.10;;;;;;;;;;5094734;28;20107;-74
2022/06/03 03:58:41;;;;;;;2.27;1.13;;;;;;;;;;5093869;28;20031;-74
2022/06/03 04:01:10;;;;;;;3.63;1.05;;;;;;;;;;5089148;28;20016;-74
2022/06/03 04:03:40;;;;;;;1.43;0.67;;;;;;;;;;5089233;28;20035;-74
2022/06/03 04:06:31;;;;;;;1.03;0.57;;;;;;;;;;5088926;28;20020;-74
2022/06/03 04:09:19;;;;;;;2.87;1.10;;;;;;;;;;5091666;28;20024;-74
2022/06/03 04:12:04;;;;;;;3.00;1.10;;;;;;;;;;5076623;28;20058;-74
2022/06/03 04:14:40;;;;;;;2.70;0.82;;;;;;;;;;5091238;28;20044;-74
2022/06/03 04:17:06;;;;;;;2.60;1.20;;;;;;;;;;5094656;28;20024;-74
2022/06/03 04:19:34;;;;;;;3.33;1.20;;;;;;;;;;5094990;28;20024;-74
2022/06/03 04:22:21;;;;;;;4.77;1.30;;;;;;;;;;5090018;28;20416;-73
2022/06/03 04:25:06;;;;;;;1.77;0.97;;;;;;;;;;5087743;28;20032;-74
2022/06/03 04:27:45;;;;;;;2.60;0.70;;;;;;;;;;5088888;28;20039;-74
2022/06/03 04:30:32;;;;;;;3.27;0.93;;;;;;;;;;5088560;28;20032;-74
2022/06/03 04:33:08;;;;;;;2.70;1.13;;;;;;;;;;5093611;28;20064;-74
2022/06/03 04:35:41;;;;;;;3.70;1.10;;;;;;;;;;5079447;28;20106;-73
2022/06/03 04:38:26;;;;;;;0.60;0.50;;;;;;;;;;5093903;28;20032;-73
2022/06/03 04:40:53;;;;;;;4.95;1.33;;;;;;;;;;5094199;28;20055;-74
2022/06/03 04:43:40;;;;;;;5.47;1.10;;;;;;;;;;5092101;28;20032;-74
2022/06/03 04:46:36;;;;;;;1.67;0.67;;;;;;;;;;5088150;28;20020;-73
2022/06/03 04:49:02;;;;;;;;;;;;;;;;;;5089182;28;20028;-74
2022/06/03 04:51:48;;;;;;;1.27;0.70;;;;;;;;;;5088305;28;20056;-73
2022/06/03 04:54:30;;;;;;;1.97;0.53;;;;;;;;;;5091931;28;20482;-73
2022/06/03 04:57:15;;;;;;;1.30;0.67;;;;;;;;;;5093637;28;20034;-73
2022/06/03 04:59:45;;;;;;;3.30;0.90;;;;;;;;;;5079211;28;20463;-73
2022/06/03 05:02:12;;;;;;;4.43;1.03;;;;;;;;;;5093627;28;20024;-74
2022/06/03 05:04:57;;;;;;;2.30;1.20;;;;;;;;;;5093696;28;20035;-73
2022/06/03 05:07:42;;;;;;;6.18;2.20;;;;;;;;;;5087848;28;20035;-74
2022/06/03 05:10:09;;;;;;;3.65;0.95;;;;;;;;;;5088102;28;20463;-73
2022/06/03 05:12:54;;;;;;;2.67;1.23;;;;;;;;;;5088107;28;20039;-73
2022/06/03 05:15:42;;;;;;;2.70;1.48;;;;;;;;;;5089071;28;20523;-73
2022/06/03 05:18:12;;;;;;;3.07;1.40;;;;;;;;;;5092731;28;20515;-73
2022/06/03 05:20:45;;;;;;;3.40;1.20;;;;;;;;;;5075208;28;20423;-73
2022/06/03 05:23:29;;;;;;;2.80;1.10;;;;;;;;;;5093452;28;20025;-73
2022/06/03 05:26:28;;;;;;;1.35;0.80;;;;;;;;;;5092918;28;20024;-73
2022/06/03 05:29:13;;;;;;;5.47;1.60;;;;;;;;;;5065559;28;20043;-73
2022/06/03 05:32:01;;;;;;;3.38;1.10;;;;;;;;;;5087448;28;20077;-73
2022/06/03 05:34:37;;;;;;;1.83;1.00;;;;;;;;;;5087051;28;20040;-73
2022/06/03 05:37:22;;;;;;;9.17;1.07;;;;;;;;;;5087611;28;20032;-73
2022/06/03 05:39:55;;;;;;;1.33;0.70;;;;;;;;;;5093276;28;20867;-73
2022/06/03 05:42:48;;;;;;;1.30;0.63;;;;;;;;;;5093093;28;20095;-73
2022/06/03 05:45:20;;;;;;;2.47;1.23;;;;;;;;;;5068884;28;20071;-73
2022/06/03 05:47:47;;;;;;;3.40;1.60;;;;;;;;;;5092963;28;20353;-72
2022/06/03 05:50:14;;;;;;;2.97;1.40;;;;;;;;;;5090735;28;20032;-73
2022/06/03 05:53:10;;;;;;;2.57;1.00;;;;;;;;;;5087596;28;20052;-73
2022/06/03 05:55:48;;;;;;;3.67;1.65;;;;;;;;;;5065885;28;20036;-73
2022/06/03 05:58:15;;;;;;;2.50;1.40;;;;;;;;;;5087522;28;20028;-73
2022/06/03 06:00:46;;;;;;;5.47;1.20;;;;;;;;;;5089723;28;20020;-73
2022/06/03 06:03:13;;;;;;;3.50;1.20;;;;;;;;;;5092454;28;20024;-73
2022/06/03 06:06:03;;;;;;;5.97;1.37;;;;;;;;;;5091956;28;20498;-73
2022/06/03 06:08:35;;;;;;;3.33;1.30;;;;;;;;;;5079722;28;20036;-73
2022/06/03 06:11:07;;;;;;;3.13;1.20;;;;;;;;;;5092363;28;20031;-73
2022/06/03 06:13:46;;;;;;;2.73;0.80;;;;;;;;;;5088168;28;20379;-73
2022/06/03 06:16:19;;;;;;;4.63;1.70;;;;;;;;;;5087141;28;20063;-73
2022/06/03 06:18:57;;;;;;;3.70;0.90;;;;;;;;;;5087387;28;20027;-73
2022/06/03 06:21:42;;;;;;;3.00;0.90;;;;;;;;;;5086826;28;20025;-73
2022/06/03 06:24:14;;;;;;;1.75;0.90;;;;;;;;;;5092171;28;20036;-73
2022/06/03 06:26:59;;;;;;;2.90;0.80;;;;;;;;;;5092402;28;20050;-73
2022/06/03 06:29:26;;;;;;;2.25;0.70;;;;;;;;;;5092007;28;20370;-73
2022/06/03 06:32:11;;;;;;;2.67;1.07;;;;;;;;;;5091679;28;20016;-73
2022/06/03 06:34:56;;;;;;;4.22;1.75;;;;;;;;;;5090539;28;20422;-73
2022/06/03 06:37:41;;;;;;;3.88;1.90;;;;;;;;;;5086918;28;20352;-73
2022/06/03 06:40:24;;;;;;;3.67;1.27;;;;;;;;;;5086866;28;20391;-73
2022/06/03 06:42:57;;;;;;;3.13;1.13;;;;;;;;;;5067037;28;20108;-73
2022/06/03 06:45:50;;;;;;;3.27;1.47;;;;;;;;;;5080007;28;20060;-73
2022/06/03 06:48:29;;;;;;;1.87;0.77;;;;;;;;;;5092159;28;20028;-73
2022/06/03 06:51:04;;;;;;;2.33;1.10;;;;;;;;;;5092097;28;20043;-73
2022/06/03 06:53:52;;;;;;;4.47;1.13;;;;;;;;;;5091471;28;20059;-73
2022/06/03 06:56:37;;;;;;;1.63;0.80;;;;;;;;;;5091370;28;20056;-73
2022/06/03 06:59:08;;;;;;;2.60;0.75;;;;;;;;;;5086672;28;20036;-73
2022/06/03 07:02:01;;;;;;;0.83;0.50;;;;;;;;;;5086623;28;20028;-73
2022/06/03 07:04:30;;;;;;;1.57;0.60;;;;;;;;;;5084010;28;20032;-73
2022/06/03 07:06:57;;;;;;;1.87;0.80;;;;;;;;;;5088417;28;20040;-73
2022/06/03 07:09:39;;;;;;;1.50;0.67;;;;;;;;;;5091728;28;20024;-73
2022/06/03 07:12:05;;;;;;;0.60;0.53;;;;;;;;;;5091556;28;20493;-73
2022/06/03 07:14:35;;;;;;;1.17;0.50;;;;;;;;;;5091451;28;20386;-72
2022/06/03 07:20:08;;;;;;;3.03;1.00;;;;;;;;;;5088269;28;20391;-73
2022/06/03 07:22:37;;;;;;;5.63;1.33;;;;;;;;;;5086209;28;20024;-73
2022/06/03 07:25:07;;;;;;;9.07;2.20;;;;;;;;;;5086652;28;20028;-73
2022/06/03 07:27:52;;;;;;;14.57;4.30;;;;;;;;;;5085933;28;20024;-73
2022/06/03 07:30:21;;;;;;;16.08;4.63;;;;;;;;;;5090068;28;20060;-73
2022/06/03 07:32:57;;;;;;;3.93;1.17;;;;;;;;;;5091543;28;20082;-73
2022/06/03 07:35:33;;;;;;;11.03;2.13;;;;;;;;;;5091486;28;20024;-73
2022/06/03 07:38:17;;;;;;;5.03;1.47;;;;;;;;;;5091878;28;20024;-73
2022/06/03 07:41:03;;;;;;;10.82;3.88;;;;;;;;;;5082410;28;20036;-72
2022/06/03 07:43:29;;;;;;;;;;;;;;;;;;5068164;28;20031;-73
2022/06/03 07:46:14;;;;;;;8.27;2.47;;;;;;;;;;5078829;28;20344;-73
2022/06/03 07:48:42;;;;;;;4.15;1.63;;;;;;;;;;5086510;28;20028;-73
2022/06/03 07:51:14;;;;;;;2.60;1.30;;;;;;;;;;5087514;28;20028;-73
2022/06/03 07:53:47;;;;;;;1.47;1.00;;;;;;;;;;5091323;28;20036;-72
2022/06/03 07:56:19;;;;;;;3.03;0.87;;;;;;;;;;5091568;28;20468;-73
2022/06/03 07:58:47;;;;;;;1.43;0.70;;;;;;;;;;5074891;28;20064;-72
2022/06/03 08:01:30;;;;;;;3.80;0.87;;;;;;;;;;5075122;28;20541;-72
2022/06/03 08:03:57;;;;;;;5.13;1.10;;;;;;;;;;5071916;28;20028;-73
2022/06/03 08:06:30;;;;;;;3.63;1.23;;;;;;;;;;5069897;28;20031;-73
2022/06/03 08:11:43;;;;;;;8.25;3.00;;;;;;;;;;5069547;28;20035;-72
2022/06/03 08:14:10;;;;;;;4.57;1.40;;;;;;;;;;5071918;28;20037;-73
2022/06/03 08:16:38;;;;;;;5.27;1.63;;;;;;;;;;5074775;28;20107;-73
2022/06/03 08:19:19;;;;;;;4.50;2.00;;;;;;;;;;5074689;28;20055;-72
2022/06/03 08:21:55;;;;;;;4.37;1.20;;;;;;;;;;5074545;28;20020;-72
2022/06/03 08:24:41;;;;;;;5.50;1.63;;;;;;;;;;5074567;28;20471;-72
2022/06/03 08:27:13;;;;;;;7.67;2.50;;;;;;;;;;5070206;28;20044;-72
2022/06/03 08:29:40;;;;;;;5.30;1.93;;;;;;;;;;5069359;28;20024;-73
2022/06/03 08:32:09;;;;;;;6.90;2.43;;;;;;;;;;5069498;28;20467;-73
2022/06/03 08:34:39;;;;;;;18.73;6.03;;;;;;;;;;5080969;28;20028;-72
2022/06/03 08:37:08;;;;;;;14.23;6.00;;;;;;;;;;5093457;28;20072;-73
2022/06/03 08:39:34;;;;;;;16.53;5.10;;;;;;;;;;5094368;28;20048;-72
2022/06/03 08:42:04;;;;;;;10.30;3.40;;;;;;;;;;5094521;28;20023;-72
2022/06/03 08:44:31;;;;;;;10.23;3.80;;;;;;;;;;5094487;28;20038;-73
2022/06/03 08:47:06;;;;;;;12.73;4.03;;;;;;;;;;5094374;28;20032;-72
2022/06/03 08:49:47;;;;;;;24.67;5.63;;;;;;;;;;5089305;28;20411;-73
2022/06/03 08:52:15;;;;;;;11.20;4.10;;;;;;;;;;5089165;28;20020;-73
2022/06/03 08:54:45;;;;;;;3.60;2.10;;;;;;;;;;5089055;28;20471;-73
2022/06/03 08:57:23;;;;;;;18.87;4.93;;;;;;;;;;5088882;28;20150;-73
2022/06/03 08:59:56;;;;;;;20.53;6.13;;;;;;;;;;5093930;28;20035;-72
2022/06/03 09:02:32;;;;;;;7.70;2.67;;;;;;;;;;5093952;28;20024;-72
2022/06/03 09:05:08;;;;;;;11.60;4.00;;;;;;;;;;5094100;28;20020;-73
2022/06/03 09:07:38;;;;;;;16.33;3.97;;;;;;;;;;5093645;28;20065;-72
2022/06/03 09:10:08;;;;;;;10.27;3.37;;;;;;;;;;5092577;28;20108;-72
2022/06/03 09:12:38;;;;;;;12.20;3.63;;;;;;;;;;5088346;28;20055;-73
2022/06/03 09:15:08;;;;;;;4.57;1.30;;;;;;;;;;5088683;28;20471;-73
2022/06/03 09:17:44;;;;;;;3.03;1.00;;;;;;;;;;5088600;28;20040;-73
2022/06/03 09:20:23;;;;;;;4.50;1.40;;;;;;;;;;5089269;28;20134;-72
2022/06/03 09:22:50;;;;;;;9.17;2.77;;;;;;;;;;5093707;28;20021;-73
2022/06/03 09:25:19;;;;;;;19.23;7.27;;;;;;;;;;5093528;28;20028;-73
2022/06/03 09:27:47;;;;;;;16.50;6.00;;;;;;;;;;5093748;28;20117;-73
2022/06/03 09:30:15;;;;;;;11.20;3.33;;;;;;;;;;5093395;28;20024;-73
2022/06/03 09:32:49;;;;;;;9.63;2.80;;;;;;;;;;5091148;28;20028;-73
2022/06/03 09:35:20;;;;;;;3.43;1.40;;;;;;;;;;5070391;28;20031;-73
2022/06/03 09:37:56;;;;;;;3.07;1.43;;;;;;;;;;5067941;28;20082;-73
2022/06/03 09:40:24;;;;;;;5.13;1.90;;;;;;;;;;5067950;28;20502;-73
2022/06/03 09:42:54;;;;;;;22.10;5.87;;;;;;;;;;5069330;28;20027;-73
2022/06/03 09:45:21;;;;;;;20.83;5.70;;;;;;;;;;5073048;28;20480;-73
2022/06/03 09:47:49;;;;;;;14.77;4.73;;;;;;;;;;5072903;28;20032;-73
2022/06/03 09:50:16;;;;;;;11.00;5.00;;;;;;;;;;5072787;28;20040;-72
2022/06/03 09:52:43;;;;;;;8.67;2.13;;;;;;;;;;5072909;28;20108;-72
2022/06/03 09:55:36;;;;;;;5.03;2.10;;;;;;;;;;5070256;28;20078;-73
2022/06/03 09:58:04;;;;;;;4.47;1.60;;;;;;;;;;5050806;28;20046;-73
2022/06/03 10:00:42;;;;;;;2.87;0.70;;;;;;;;;;5067363;28;20073;-72
2022/06/03 10:03:09;;;;;;;3.47;1.20;;;;;;;;;;5067413;28;20449;-72
2022/06/03 10:05:36;;;;;;;5.10;0.67;;;;;;;;;;5070169;28;20025;-73
2022/06/03 10:08:05;;;;;;;1.40;0.77;;;;;;;;;;5072911;28;20631;-72
2022/06/03 10:13:17;;;;;;;3.53;0.50;;;;;;;;;;5072550;28;20399;-72
2022/06/03 10:15:47;;;;;;;1.33;0.50;;;;;;;;;;5072183;28;20115;-72
2022/06/03 10:18:20;;;;;;;1.83;0.40;;;;;;;;;;5068221;28;20099;-72
2022/06/03 10:20:47;;;;;;;4.83;0.83;;;;;;;;;;5066639;28;20058;-73
2022/06/03 10:23:14;;;;;;;3.00;1.50;;;;;;;;;;5067110;28;20027;-73
2022/06/03 10:25:42;;;;;;;29.03;6.83;;;;;;;;;;5067164;28;20047;-72
2022/06/03 10:28:10;;;;;;;20.20;3.90;;;;;;;;;;5070677;28;20032;-72
2022/06/03 10:30:40;;;;;;;9.40;2.70;;;;;;;;;;5072396;28;20086;-73
2022/06/03 10:33:17;;;;;;;10.47;2.87;;;;;;;;;;5072252;28;20064;-72
2022/06/03 10:35:44;;;;;;;3.27;1.17;;;;;;;;;;5072314;28;20108;-72
2022/06/03 10:38:11;;;;;;;13.07;2.33;;;;;;;;;;5072141;28;20024;-72
2022/06/03 10:40:39;;;;;;;8.93;2.17;;;;;;;;;;5067451;28;20111;-72
2022/06/03 10:43:07;;;;;;;6.90;2.20;;;;;;;;;;5067012;28;20426;-73
2022/06/03 10:45:35;;;;;;;8.27;2.50;;;;;;;;;;5066983;28;20098;-72
2022/06/03 10:48:01;;;;;;;4.67;1.87;;;;;;;;;;5066938;28;20525;-73
2022/06/03 10:50:38;;;;;;;22.30;5.60;;;;;;;;;;5070864;28;20025;-72
2022/06/03 11:01:41;;;;;;;1.53;0.50;;;;;;;;;;5070215;28;19911;-72
2022/06/03 11:04:08;;;;;;;1.20;0.50;;;;;;;;;;5066880;28;20020;-72
2022/06/03 11:06:39;;;;;;;4.40;0.70;;;;;;;;;;5066782;28;20032;-72
2022/06/03 11:09:07;;;;;;;2.57;0.87;;;;;;;;;;5066277;28;20020;-72
2022/06/03 11:11:39;;;;;;;23.10;5.20;;;;;;;;;;5068233;28;20047;-72
2022/06/03 11:14:24;;;;;;;14.17;3.13;;;;;;;;;;5071950;28;20036;-72
2022/06/03 11:17:11;;;;;;;5.50;1.15;;;;;;;;;;5072058;28;20127;-72
2022/06/03 11:19:40;;;;;;;3.00;0.90;;;;;;;;;;5070133;28;20420;-72
2022/06/03 11:22:13;;;;;;;21.20;5.27;;;;;;;;;;5072010;28;20020;-72
2022/06/03 11:24:40;;;;;;;5.63;1.93;;;;;;;;;;5068167;28;20028;-73
2022/06/03 11:27:09;;;;;;;7.10;1.73;;;;;;;;;;5066355;28;20024;-73
2022/06/03 11:29:37;;;;;;;3.10;0.60;;;;;;;;;;5066304;28;20020;-72
2022/06/03 11:32:06;;;;;;;2.03;0.60;;;;;;;;;;5066849;28;20539;-72
2022/06/03 11:34:55;;;;;;;6.50;1.00;;;;;;;;;;5085112;28;20024;-72
2022/06/03 11:37:26;;;;;;;4.80;0.70;;;;;;;;;;5080572;28;20064;-73
2022/06/03 11:39:55;;;;;;;4.67;0.70;;;;;;;;;;5095781;28;20474;-73
2022/06/03 11:42:26;;;;;;;4.23;0.47;;;;;;;;;;5095739;28;20031;-72
2022/06/03 11:44:56;;;;;;;1.20;0.40;;;;;;;;;;5095739;28;20017;-73
2022/06/03 11:47:23;;;;;;;3.17;0.47;;;;;;;;;;5090482;28;20103;-72
2022/06/03 11:49:50;;;;;;;1.80;0.80;;;;;;;;;;5090536;28;20012;-73
2022/06/03 11:52:17;;;;;;;4.83;1.00;;;;;;;;;;5089774;28;20111;-72
2022/06/03 11:54:44;;;;;;;4.30;0.53;;;;;;;;;;5090041;28;20475;-72
2022/06/03 11:57:11;;;;;;;5.73;0.60;;;;;;;;;;5094379;28;20024;-72
2022/06/03 11:59:41;;;;;;;1.03;0.30;;;;;;;;;;5095492;28;20031;-72
2022/06/03 12:02:19;;;;;;;3.60;0.50;;;;;;;;;;5095212;28;20020;-72
2022/06/03 12:04:52;;;;;;;3.53;0.50;;;;;;;;;;5094772;28;20478;-72
2022/06/03 12:07:21;;;;;;;2.03;0.70;;;;;;;;;;5095331;28;20028;-72
2022/06/03 12:09:53;;;;;;;0.90;0.40;;;;;;;;;;5089805;28;20526;-72
2022/06/03 12:15:34;;;;;;;1.47;0.60;;;;;;;;;;5089920;28;20493;-72
2022/06/03 12:18:06;;;;;;;3.25;0.73;;;;;;;;;;5090931;28;20513;-72
2022/06/03 12:20:33;;;;;;;5.70;0.53;;;;;;;;;;5094862;28;20052;-72
2022/06/03 12:23:12;;;;;;;5.00;0.40;;;;;;;;;;5094588;28;20055;-72
2022/06/03 12:25:38;;;;;;;6.40;1.23;;;;;;;;;;5094804;28;20410;-72
2022/06/03 12:28:06;;;;;;;3.03;1.00;;;;;;;;;;5094793;28;20028;-72
2022/06/03 12:30:32;;;;;;;3.60;0.80;;;;;;;;;;5092620;28;20024;-72
2022/06/03 12:33:04;;;;;;;2.27;0.90;;;;;;;;;;5089457;28;20036;-71
2022/06/03 12:35:44;;;;;;;2.53;0.60;;;;;;;;;;5089366;28;20028;-72
2022/06/03 12:38:23;;;;;;;4.00;0.70;;;;;;;;;;5089313;28;20425;-72
2022/06/03 12:40:59;;;;;;;1.03;0.37;;;;;;;;;;5091985;28;20016;-72
2022/06/03 12:43:29;;;;;;;1.30;0.40;;;;;;;;;;5094372;28;20020;-72
2022/06/03 12:46:04;;;;;;;2.60;0.70;;;;;;;;;;5093895;28;20104;-72
2022/06/03 12:48:36;;;;;;;2.45;0.90;;;;;;;;;;5094412;28;20019;-72
2022/06/03 12:51:21;;;;;;;3.73;0.63;;;;;;;;;;5094309;28;20058;-72
2022/06/03 12:53:48;;;;;;;3.20;0.95;;;;;;;;;;5089707;28;20046;-72
2022/06/03 12:56:24;;;;;;;0.97;0.40;;;;;;;;;;5088991;28;20031;-72
2022/06/03 12:58:51;;;;;;;1.03;0.80;;;;;;;;;;5088364;28;20493;-72
2022/06/03 13:01:56;;;;;;;2.37;0.67;;;;;;;;;;5088591;28;20050;-72
2022/06/03 13:04:38;;;;;;;0.67;0.40;;;;;;;;;;5031679;28;20030;-72
2022/06/03 13:07:14;;;;;;;2.23;0.80;;;;;;;;;;5031266;28;20025;-72
2022/06/03 13:09:49;;;;;;;1.23;0.60;;;;;;;;;;5071542;28;20043;-72
2022/06/03 13:12:17;;;;;;;1.80;0.40;;;;;;;;;;5093412;28;20505;-72
2022/06/03 13:14:44;;;;;;;1.57;0.80;;;;;;;;;;5092042;28;20062;-72
2022/06/03 13:17:31;;;;;;;2.70;0.60;;;;;;;;;;5088312;28;20073;-72
2022/06/03 13:19:59;;;;;;;4.03;0.70;;;;;;;;;;5088049;28;20484;-72
2022/06/03 13:22:29;;;;;;;0.73;0.40;;;;;;;;;;5088514;28;20376;-72
2022/06/03 13:25:14;;;;;;;0.77;0.50;;;;;;;;;;5090112;28;20020;-72
2022/06/03 13:27:41;;;;;;;1.48;0.52;;;;;;;;;;5093119;28;20024;-72
2022/06/03 13:30:13;;;;;;;2.47;0.73;;;;;;;;;;5093499;28;20438;-72
2022/06/03 13:32:40;;;;;;;1.77;0.60;;;;;;;;;;5093295;28;20028;-72
2022/06/03 13:35:17;;;;;;;1.77;0.70;;;;;;;;;;5093335;28;20032;-72
2022/06/03 13:37:45;;;;;;;2.00;0.60;;;;;;;;;;5089910;28;20036;-72
2022/06/03 13:40:22;;;;;;;1.53;0.70;;;;;;;;;;5087485;28;20467;-72
2022/06/03 13:43:00;;;;;;;1.77;1.10;;;;;;;;;;5087501;28;20016;-72
2022/06/03 13:45:42;;;;;;;2.23;0.83;;;;;;;;;;5069882;28;20439;-72
2022/06/03 13:48:12;;;;;;;2.63;0.70;;;;;;;;;;5091452;28;20048;-72
2022/06/03 13:50:39;;;;;;;2.03;0.63;;;;;;;;;;5092852;28;20046;-72
2022/06/03 13:53:06;;;;;;;2.20;0.60;;;;;;;;;;5093444;28;20408;-73
2022/06/03 13:55:41;;;;;;;1.90;0.63;;;;;;;;;;5092450;28;20413;-73
2022/06/03 13:58:11;;;;;;;5.60;1.40;;;;;;;;;;5092649;28;20028;-73
2022/06/03 14:00:41;;;;;;;3.40;0.87;;;;;;;;;;5087885;28;20039;-73
2022/06/03 14:03:10;;;;;;;1.30;0.57;;;;;;;;;;5087741;28;20081;-73
2022/06/03 14:05:43;;;;;;;4.23;1.53;;;;;;;;;;5087726;28;20024;-73
2022/06/03 14:08:13;;;;;;;2.87;1.17;;;;;;;;;;5086924;28;20024;-73
2022/06/03 14:10:50;;;;;;;2.30;0.73;;;;;;;;;;5092136;28;20467;-73
2022/06/03 14:13:17;;;;;;;2.00;0.97;;;;;;;;;;5092664;28;20043;-73
2022/06/03 14:15:54;;;;;;;6.87;0.83;;;;;;;;;;5092517;28;20085;-74
2022/06/03 14:18:39;;;;;;;2.43;1.10;;;;;;;;;;5092698;28;20016;-73
2022/06/03 14:21:08;;;;;;;4.07;1.10;;;;;;;;;;5090811;28;20062;-73
2022/06/03 14:23:38;;;;;;;2.57;1.20;;;;;;;;;;5087370;28;20047;-73
2022/06/03 14:26:17;;;;;;;4.87;1.67;;;;;;;;;;5087117;28;20032;-74
2022/06/03 14:28:47;;;;;;;2.57;1.17;;;;;;;;;;5086987;28;20020;-74
2022/06/03 14:31:22;;;;;;;5.23;1.47;;;;;;;;;;5087594;28;20107;-73
2022/06/03 14:33:50;;;;;;;2.63;1.10;;;;;;;;;;5091642;28;20054;-73
2022/06/03 14:36:18;;;;;;;3.03;1.10;;;;;;;;;;5091864;28;20103;-74
2022/06/03 14:38:56;;;;;;;2.60;1.17;;;;;;;;;;5092431;28;20031;-74
2022/06/03 14:41:25;;;;;;;2.47;1.23;;;;;;;;;;5090356;28;20024;-74
2022/06/03 14:43:52;;;;;;;2.60;1.17;;;;;;;;;;5089495;28;20104;-73
2022/06/03 14:46:21;;;;;;;1.63;0.90;;;;;;;;;;5087040;28;20020;-73
2022/06/03 14:48:54;;;;;;;1.63;0.73;;;;;;;;;;5087014;28;20036;-74
2022/06/03 14:51:21;;;;;;;1.77;0.63;;;;;;;;;;5086692;28;20032;-74
2022/06/03 14:53:53;;;;;;;3.13;0.83;;;;;;;;;;5088876;28;20062;-73
2022/06/03 14:56:35;;;;;;;1.77;0.70;;;;;;;;;;5092021;28;20410;-74
2022/06/03 14:59:11;;;;;;;1.33;0.60;;;;;;;;;;5091901;28;20375;-74
2022/06/03 15:01:47;;;;;;;1.20;0.43;;;;;;;;;;5092083;28;20402;-74
2022/06/03 15:04:15;;;;;;;1.63;0.80;;;;;;;;;;5092144;28;20021;-74
2022/06/03 15:06:51;;;;;;;1.55;0.77;;;;;;;;;;5088235;28;20028;-74
2022/06/03 15:09:28;;;;;;;0.77;0.52;;;;;;;;;;5091055;28;20027;-74
2022/06/03 15:11:58;;;;;;;1.65;0.50;;;;;;;;;;5090683;28;20034;-73
2022/06/03 15:14:26;;;;;;;0.50;0.40;;;;;;;;;;5090936;28;20103;-74
2022/06/03 15:16:58;;;;;;;1.55;0.60;;;;;;;;;;5094656;28;20044;-74
2022/06/03 15:19:44;;;;;;;0.98;0.60;;;;;;;;;;5095844;28;20036;-74
2022/06/03 15:22:47;;;;;;;3.28;0.65;;;;;;;;;;5095715;28;20050;-74
2022/06/03 15:25:14;;;;;;;1.30;0.50;;;;;;;;;;4994133;28;20121;-74
2022/06/03 15:27:49;;;;;;;1.67;0.73;;;;;;;;;;5074896;28;20051;-74
2022/06/03 15:30:21;;;;;;;2.40;0.50;;;;;;;;;;5089938;28;20379;-74
2022/06/03 15:32:48;;;;;;;1.65;0.50;;;;;;;;;;5090662;28;20028;-74
2022/06/03 15:35:34;;;;;;;0.52;0.30;;;;;;;;;;5090334;28;20039;-74
2022/06/03 15:38:02;;;;;;;0.68;0.47;;;;;;;;;;5092149;28;20039;-74
2022/06/03 15:40:32;;;;;;;1.95;0.80;;;;;;;;;;5094984;28;20032;-74
2022/06/03 15:43:00;;;;;;;1.05;0.40;;;;;;;;;;5095749;28;20466;-73
2022/06/03 15:45:36;;;;;;;1.38;0.75;;;;;;;;;;5095354;28;20112;-74
2022/06/03 15:48:11;;;;;;;0.68;0.43;;;;;;;;;;5095463;28;20020;-74